NCAR-RAP Real-Time Weather Data

Output produced by METARs form (01 December 2020  18:39 UTC)
found at http://weather.rap.ucar.edu/surface/
 
KAUS 011653Z 19014G22KT 10SM SCT250 12/M04 A3021 RMK AO2 SLP234 T01171044
KAUS 011553Z 18012G19KT 10SM FEW250 08/M02 A3024 RMK AO2 SLP244 T00831022
KAUS 011453Z 18005KT 10SM FEW080 04/M01 A3023 RMK AO2 SLP246 T00391011 51001 $
KAUS 011353Z 00000KT 10SM FEW075 M02/M04 A3023 RMK AO2 SLP247 T10221044 $
KAUS 011253Z 00000KT 10SM CLR M06/M07 A3023 RMK AO2 SLP249 T10561072 $
KAUS 011153Z 00000KT 10SM CLR M04/M07 A3023 RMK AO2 SLP246 T10441067 10006 21050 56015 $
KAUS 011053Z 00000KT 10SM CLR M04/M06 A3023 RMK AO2 SLP244 T10441061 $
KAUS 010953Z 00000KT 10SM CLR M04/M06 A3025 RMK AO2 SLP251 T10391061 $
KAUS 010853Z 00000KT 10SM CLR M03/M05 A3027 RMK AO2 SLP257 T10281050 56018 $
KAUS 010753Z 00000KT 10SM CLR M03/M06 A3027 RMK AO2 SLP257 T10331056 $
KAUS 010653Z 00000KT 10SM CLR M04/M07 A3030 RMK AO2 SLP269 T10441067 $
KAUS 010553Z 25005KT 10SM CLR 00/M04 A3033 RMK AO2 SLP275 T00001044 10044 21011 401441011 56003 $
KAUS 010453Z 26004KT 10SM CLR 01/M03 A3033 RMK AO2 SLP276 T00111033 $
KAUS 010353Z 00000KT 10SM CLR 02/M03 A3032 RMK AO2 SLP274 T00171028 $